sensor_id;sensor_type;location;lat;lon;timestamp;P1;durP1;ratioP1;P2;durP2;ratioP2
16967;SDS011;64862;54.398;10.126;2023-08-30T00:03:36;6.10;;;1.50;;
16967;SDS011;64862;54.398;10.126;2023-08-30T00:13:38;2.30;;;1.40;;
16967;SDS011;64862;54.398;10.126;2023-08-30T00:23:42;3.72;;;2.00;;
16967;SDS011;64862;54.398;10.126;2023-08-30T00:33:44;2.25;;;1.73;;
16967;SDS011;64862;54.398;10.126;2023-08-30T00:43:48;4.28;;;2.45;;
16967;SDS011;64862;54.398;10.126;2023-08-30T00:53:50;3.80;;;1.98;;
16967;SDS011;64862;54.398;10.126;2023-08-30T01:03:54;4.65;;;2.30;;
16967;SDS011;64862;54.398;10.126;2023-08-30T01:13:56;3.83;;;2.58;;
16967;SDS011;64862;54.398;10.126;2023-08-30T01:24:03;7.50;;;2.80;;
16967;SDS011;64862;54.398;10.126;2023-08-30T01:34:10;6.55;;;3.50;;
16967;SDS011;64862;54.398;10.126;2023-08-30T01:44:13;6.50;;;3.30;;
16967;SDS011;64862;54.398;10.126;2023-08-30T01:54:18;6.05;;;3.60;;
16967;SDS011;64862;54.398;10.126;2023-08-30T02:04:21;5.30;;;3.40;;
16967;SDS011;64862;54.398;10.126;2023-08-30T02:14:26;4.93;;;2.88;;
16967;SDS011;64862;54.398;10.126;2023-08-30T02:24:29;4.13;;;2.85;;
16967;SDS011;64862;54.398;10.126;2023-08-30T02:34:32;6.40;;;2.90;;
16967;SDS011;64862;54.398;10.126;2023-08-30T02:44:35;9.75;;;3.85;;
16967;SDS011;64862;54.398;10.126;2023-08-30T02:54:39;5.13;;;3.88;;
16967;SDS011;64862;54.398;10.126;2023-08-30T03:04:41;5.40;;;3.03;;
16967;SDS011;64862;54.398;10.126;2023-08-30T03:14:45;5.78;;;4.55;;
16967;SDS011;64862;54.398;10.126;2023-08-30T03:24:47;8.40;;;5.63;;
16967;SDS011;64862;54.398;10.126;2023-08-30T03:34:52;8.57;;;5.57;;
16967;SDS011;64862;54.398;10.126;2023-08-30T03:44:54;11.38;;;6.05;;
16967;SDS011;64862;54.398;10.126;2023-08-30T03:54:57;8.27;;;5.18;;
16967;SDS011;64862;54.398;10.126;2023-08-30T04:04:59;9.68;;;5.63;;
16967;SDS011;64862;54.398;10.126;2023-08-30T04:15:02;10.52;;;6.22;;
16967;SDS011;64862;54.398;10.126;2023-08-30T04:25:05;7.85;;;6.10;;
16967;SDS011;64862;54.398;10.126;2023-08-30T04:35:11;7.30;;;5.63;;
16967;SDS011;64862;54.398;10.126;2023-08-30T04:45:13;10.52;;;6.40;;
16967;SDS011;64862;54.398;10.126;2023-08-30T04:55:18;9.88;;;5.63;;
16967;SDS011;64862;54.398;10.126;2023-08-30T05:05:19;8.35;;;5.35;;
16967;SDS011;64862;54.398;10.126;2023-08-30T05:15:23;7.78;;;5.43;;
16967;SDS011;64862;54.398;10.126;2023-08-30T05:25:25;12.02;;;3.92;;
16967;SDS011;64862;54.398;10.126;2023-08-30T05:35:28;13.60;;;4.10;;
16967;SDS011;64862;54.398;10.126;2023-08-30T05:46:05;11.63;;;5.80;;
16967;SDS011;64862;54.398;10.126;2023-08-30T05:56:14;10.33;;;5.80;;
16967;SDS011;64862;54.398;10.126;2023-08-30T06:06:16;9.48;;;6.30;;
16967;SDS011;64862;54.398;10.126;2023-08-30T06:16:20;10.85;;;6.47;;
16967;SDS011;64862;54.398;10.126;2023-08-30T06:26:22;10.68;;;6.40;;
16967;SDS011;64862;54.398;10.126;2023-08-30T06:36:25;11.77;;;7.60;;
16967;SDS011;64862;54.398;10.126;2023-08-30T06:46:28;19.67;;;10.23;;
16967;SDS011;64862;54.398;10.126;2023-08-30T06:56:31;18.48;;;10.38;;
16967;SDS011;64862;54.398;10.126;2023-08-30T07:06:33;15.27;;;10.27;;
16967;SDS011;64862;54.398;10.126;2023-08-30T07:16:37;13.70;;;8.88;;
16967;SDS011;64862;54.398;10.126;2023-08-30T07:26:38;11.90;;;7.70;;
16967;SDS011;64862;54.398;10.126;2023-08-30T07:36:42;10.57;;;6.90;;
16967;SDS011;64862;54.398;10.126;2023-08-30T07:46:43;10.45;;;6.50;;
16967;SDS011;64862;54.398;10.126;2023-08-30T07:56:47;11.18;;;5.75;;
16967;SDS011;64862;54.398;10.126;2023-08-30T08:06:48;8.40;;;4.88;;
16967;SDS011;64862;54.398;10.126;2023-08-30T08:16:52;8.57;;;4.63;;
16967;SDS011;64862;54.398;10.126;2023-08-30T08:26:53;7.18;;;4.90;;
16967;SDS011;64862;54.398;10.126;2023-08-30T08:36:57;7.93;;;4.05;;
16967;SDS011;64862;54.398;10.126;2023-08-30T08:46:59;4.75;;;3.17;;
16967;SDS011;64862;54.398;10.126;2023-08-30T08:57:04;5.45;;;3.33;;
16967;SDS011;64862;54.398;10.126;2023-08-30T09:07:07;6.90;;;3.83;;
16967;SDS011;64862;54.398;10.126;2023-08-30T09:17:12;7.20;;;4.28;;
16967;SDS011;64862;54.398;10.126;2023-08-30T09:27:13;7.38;;;4.05;;
16967;SDS011;64862;54.398;10.126;2023-08-30T09:37:21;5.20;;;3.20;;
16967;SDS011;64862;54.398;10.126;2023-08-30T09:47:24;6.80;;;4.10;;
16967;SDS011;64862;54.398;10.126;2023-08-30T09:57:28;6.47;;;4.32;;
16967;SDS011;64862;54.398;10.126;2023-08-30T10:07:31;7.85;;;5.60;;
16967;SDS011;64862;54.398;10.126;2023-08-30T10:17:34;11.90;;;7.68;;
16967;SDS011;64862;54.398;10.126;2023-08-30T10:27:41;11.97;;;7.20;;
16967;SDS011;64862;54.398;10.126;2023-08-30T10:48:01;11.23;;;6.35;;
16967;SDS011;64862;54.398;10.126;2023-08-30T10:58:05;8.77;;;6.07;;
16967;SDS011;64862;54.398;10.126;2023-08-30T11:08:09;7.32;;;4.63;;
16967;SDS011;64862;54.398;10.126;2023-08-30T11:18:13;8.75;;;5.20;;
16967;SDS011;64862;54.398;10.126;2023-08-30T11:28:23;5.60;;;3.40;;
16967;SDS011;64862;54.398;10.126;2023-08-30T11:38:27;7.82;;;4.28;;
16967;SDS011;64862;54.398;10.126;2023-08-30T11:48:29;6.32;;;4.18;;
16967;SDS011;64862;54.398;10.126;2023-08-30T11:58:33;8.55;;;4.10;;
16967;SDS011;64862;54.398;10.126;2023-08-30T12:08:35;8.13;;;4.15;;
16967;SDS011;64862;54.398;10.126;2023-08-30T12:18:39;9.00;;;4.68;;
16967;SDS011;64862;54.398;10.126;2023-08-30T12:28:42;9.75;;;4.57;;
16967;SDS011;64862;54.398;10.126;2023-08-30T12:38:45;10.07;;;5.30;;
16967;SDS011;64862;54.398;10.126;2023-08-30T12:48:48;10.48;;;5.65;;
16967;SDS011;64862;54.398;10.126;2023-08-30T12:58:52;8.77;;;5.53;;
16967;SDS011;64862;54.398;10.126;2023-08-30T13:08:54;7.72;;;5.00;;
16967;SDS011;64862;54.398;10.126;2023-08-30T13:18:58;11.02;;;4.95;;
16967;SDS011;64862;54.398;10.126;2023-08-30T13:29:01;8.02;;;4.68;;
16967;SDS011;64862;54.398;10.126;2023-08-30T13:39:04;9.63;;;4.60;;
16967;SDS011;64862;54.398;10.126;2023-08-30T13:49:06;6.80;;;4.50;;
16967;SDS011;64862;54.398;10.126;2023-08-30T13:59:10;8.75;;;5.00;;
16967;SDS011;64862;54.398;10.126;2023-08-30T14:09:12;9.20;;;5.45;;
16967;SDS011;64862;54.398;10.126;2023-08-30T14:19:17;8.40;;;4.90;;
16967;SDS011;64862;54.398;10.126;2023-08-30T14:29:20;6.78;;;4.38;;
16967;SDS011;64862;54.398;10.126;2023-08-30T14:39:23;7.97;;;4.88;;
16967;SDS011;64862;54.398;10.126;2023-08-30T14:49:26;8.38;;;4.65;;
16967;SDS011;64862;54.398;10.126;2023-08-30T14:59:29;6.22;;;4.20;;
16967;SDS011;64862;54.398;10.126;2023-08-30T15:09:33;8.20;;;4.10;;
16967;SDS011;64862;54.398;10.126;2023-08-30T15:19:36;6.30;;;3.70;;
16967;SDS011;64862;54.398;10.126;2023-08-30T15:29:40;5.20;;;3.92;;
16967;SDS011;64862;54.398;10.126;2023-08-30T15:39:44;9.35;;;3.65;;
16967;SDS011;64862;54.398;10.126;2023-08-30T15:49:47;7.35;;;4.07;;
16967;SDS011;64862;54.398;10.126;2023-08-30T15:59:51;5.88;;;3.80;;
16967;SDS011;64862;54.398;10.126;2023-08-30T16:09:53;8.23;;;3.83;;
16967;SDS011;64862;54.398;10.126;2023-08-30T16:19:57;7.78;;;4.28;;
16967;SDS011;64862;54.398;10.126;2023-08-30T16:29:59;5.47;;;3.45;;
16967;SDS011;64862;54.398;10.126;2023-08-30T16:40:05;6.68;;;3.90;;
16967;SDS011;64862;54.398;10.126;2023-08-30T16:50:07;5.50;;;3.60;;
16967;SDS011;64862;54.398;10.126;2023-08-30T17:00:15;20.45;;;4.53;;
16967;SDS011;64862;54.398;10.126;2023-08-30T17:10:20;15.35;;;4.20;;
16967;SDS011;64862;54.398;10.126;2023-08-30T17:20:24;9.02;;;3.67;;
16967;SDS011;64862;54.398;10.126;2023-08-30T17:30:28;6.30;;;3.63;;
16967;SDS011;64862;54.398;10.126;2023-08-30T17:40:31;6.72;;;3.58;;
16967;SDS011;64862;54.398;10.126;2023-08-30T17:50:34;7.75;;;4.63;;
16967;SDS011;64862;54.398;10.126;2023-08-30T18:00:37;7.28;;;4.97;;
16967;SDS011;64862;54.398;10.126;2023-08-30T18:10:39;7.18;;;4.93;;
16967;SDS011;64862;54.398;10.126;2023-08-30T18:20:43;9.52;;;6.00;;
16967;SDS011;64862;54.398;10.126;2023-08-30T18:30:46;8.95;;;5.60;;
16967;SDS011;64862;54.398;10.126;2023-08-30T18:40:49;10.82;;;7.18;;
16967;SDS011;64862;54.398;10.126;2023-08-30T18:50:52;8.32;;;5.95;;
16967;SDS011;64862;54.398;10.126;2023-08-30T19:00:57;9.73;;;7.55;;
16967;SDS011;64862;54.398;10.126;2023-08-30T19:11:00;10.10;;;7.13;;
16967;SDS011;64862;54.398;10.126;2023-08-30T19:21:04;11.30;;;7.82;;
16967;SDS011;64862;54.398;10.126;2023-08-30T19:31:08;10.15;;;7.53;;
16967;SDS011;64862;54.398;10.126;2023-08-30T19:41:12;10.43;;;7.35;;
16967;SDS011;64862;54.398;10.126;2023-08-30T19:51:15;11.88;;;8.35;;
16967;SDS011;64862;54.398;10.126;2023-08-30T20:01:18;10.75;;;8.52;;
16967;SDS011;64862;54.398;10.126;2023-08-30T20:11:20;11.90;;;8.27;;
16967;SDS011;64862;54.398;10.126;2023-08-30T20:21:25;9.57;;;7.97;;
16967;SDS011;64862;54.398;10.126;2023-08-30T20:31:27;11.90;;;8.80;;
16967;SDS011;64862;54.398;10.126;2023-08-30T20:41:30;12.18;;;9.32;;
16967;SDS011;64862;54.398;10.126;2023-08-30T20:51:32;13.35;;;10.20;;
16967;SDS011;64862;54.398;10.126;2023-08-30T21:01:35;16.20;;;10.52;;
16967;SDS011;64862;54.398;10.126;2023-08-30T21:11:37;14.50;;;10.88;;
16967;SDS011;64862;54.398;10.126;2023-08-30T21:21:40;15.10;;;11.90;;
16967;SDS011;64862;54.398;10.126;2023-08-30T21:31:42;15.73;;;12.15;;
16967;SDS011;64862;54.398;10.126;2023-08-30T21:41:45;15.25;;;11.13;;
16967;SDS011;64862;54.398;10.126;2023-08-30T21:51:47;15.73;;;11.93;;
16967;SDS011;64862;54.398;10.126;2023-08-30T22:01:50;20.08;;;13.50;;
16967;SDS011;64862;54.398;10.126;2023-08-30T22:11:52;21.85;;;15.65;;
16967;SDS011;64862;54.398;10.126;2023-08-30T22:21:55;22.58;;;15.52;;
16967;SDS011;64862;54.398;10.126;2023-08-30T22:31:57;22.38;;;16.88;;
16967;SDS011;64862;54.398;10.126;2023-08-30T22:42:00;20.73;;;16.38;;
16967;SDS011;64862;54.398;10.126;2023-08-30T22:52:03;19.88;;;14.90;;
16967;SDS011;64862;54.398;10.126;2023-08-30T23:02:06;20.88;;;13.90;;
16967;SDS011;64862;54.398;10.126;2023-08-30T23:12:08;17.75;;;14.48;;
16967;SDS011;64862;54.398;10.126;2023-08-30T23:22:12;20.70;;;16.00;;
16967;SDS011;64862;54.398;10.126;2023-08-30T23:32:14;20.33;;;16.98;;
16967;SDS011;64862;54.398;10.126;2023-08-30T23:42:17;23.95;;;17.75;;
16967;SDS011;64862;54.398;10.126;2023-08-30T23:52:19;22.67;;;17.50;;
